• pl
  • eng

Awiacja
TAF FT 04:30 20.08.2018
  • WIND
  • SIGNIFICANT EURO
  • SIGNIFICANT
  • SIGMET
  • AIRMET
  • TAF FC
  • TAF FT
  • METAR GG30
  • METAR GG00


TAF EPBY 192330Z 2000/2024 16005KT CAVOK
BECMG 2005/2007 27011KT=

TAF COR EPGD 200117Z 2000/2024 18005KT CAVOK
BECMG 2005/2008 27012KT
PROB30 TEMPO 2012/2020 -RA BKN014=

TAF EPKK 192330Z 2000/2024 VRB02KT CAVOK
BECMG 2008/2011 25010KT
PROB40 TEMPO 2012/2018 VRB15G27KT TSRA BKN030CB=

TAF EPKK 200230Z 2003/2103 VRB02KT CAVOK
BECMG 2008/2011 25010KT
PROB40 TEMPO 2012/2018 VRB15G27KT TSRA BKN030CB=

TAF EPKT 192330Z 2000/2024 VRB02KT CAVOK
BECMG 2008/2011 30010KT
TEMPO 2012/2018 BKN030CB=

TAF EPLL 192330Z 2000/2024 VRB02KT CAVOK
BECMG 2006/2009 28011KT=

TAF EPMO 192330Z 2000/2024 VRB02KT CAVOK
BECMG 2009/2011 28012KT=

TAF EPPO 192330Z 2000/2024 VRB05KT CAVOK
BECMG 2006/2009 28012KT
TEMPO 2010/2016 29016G28KT=

TAF EPRZ 192330Z 2000/2024 VRB02KT CAVOK
BECMG 2008/2010 22010KT=

TAF EPSC 192330Z 2000/2024 16007KT CAVOK
BECMG 2000/2002 27010KT
PROB30 TEMPO 2009/2018 -RA BKN014=

TAF EPWA 192330Z 2000/2024 VRB02KT CAVOK
BECMG 2009/2011 28012KT=

TAF EPWA 200230Z 2003/2103 VRB02KT CAVOK
BECMG 2009/2011 28010KT
PROB40 TEMPO 2011/2016 SCT045TCU=

TAF EPWR 192330Z 2000/2024 VRB04KT CAVOK
BECMG 2007/2010 29010KT
PROB40 TEMPO 2010/2018 32016G26KT=

TAF EPWR 200230Z 2003/2103 VRB04KT CAVOK
BECMG 2007/2010 29010KT
PROB40 TEMPO 2010/2018 32016G26KT=
Awiacja.imgw.pl jest pogodowym serwisem informacyjnym
Instytutu Meteorologii i Gospodarki Wodnej Państwowego Instytutu Badawczego.
Copyright IMGW PIB 2009-2011© Wszelkie prawa zastrzeżone.